Terminal Aerodrome Forecast
Issued by NWS St Louis, MO

Home | Current Version | Previous Version | Text Only | Print | Product List | Glossary On
Versions: 1 2 3 4 5 6 7 8 9 10 11 12 13 14 15 16 17 18 19
000
FTUS43 KLSX 170500
TAFCOU
TAF
KCOU 170530Z 1706/1806 VRB04KT P6SM BKN040
     FM170800 VRB04KT P6SM BKN025
     FM171900 17005KT P6SM VCSH BKN035
     FM180000 09004KT P6SM BKN035
      AMD NOT SKED=

USA.gov is the U.S. government's official web portal to all federal, state and local government web resources and services.